createdAt,value
2019-03-29T00:00:32.502Z,9.70
2019-03-29T00:02:35.089Z,9.70
2019-03-29T00:04:37.365Z,9.70
2019-03-29T00:06:39.702Z,9.70
2019-03-29T00:08:41.977Z,9.60
2019-03-29T00:10:44.232Z,9.60
2019-03-29T00:12:46.697Z,9.60
2019-03-29T00:14:48.969Z,9.60
2019-03-29T00:16:51.307Z,9.60
2019-03-29T00:18:54.365Z,9.60
2019-03-29T00:20:56.746Z,9.70
2019-03-29T00:22:59.129Z,9.70
2019-03-29T00:25:01.487Z,9.70
2019-03-29T00:27:03.861Z,9.60
2019-03-29T00:29:06.146Z,9.70
2019-03-29T00:31:08.389Z,9.70
2019-03-29T00:33:10.645Z,9.60
2019-03-29T00:35:12.889Z,9.60
2019-03-29T00:37:15.161Z,9.60
2019-03-29T00:39:17.447Z,9.60
2019-03-29T00:41:19.717Z,9.60
2019-03-29T00:43:22.194Z,9.60
2019-03-29T00:45:26.030Z,9.60
2019-03-29T00:47:28.374Z,9.60
2019-03-29T00:49:30.713Z,9.50
2019-03-29T00:51:32.980Z,9.60
2019-03-29T00:53:36.178Z,9.60
2019-03-29T00:55:38.486Z,9.60
2019-03-29T00:57:40.738Z,9.60
2019-03-29T00:59:43.030Z,9.60
2019-03-29T01:01:45.282Z,9.60
2019-03-29T01:03:47.673Z,9.60
2019-03-29T01:05:50.346Z,9.50
2019-03-29T01:08:06.751Z,9.50
2019-03-29T01:09:56.956Z,9.60
2019-03-29T01:11:59.325Z,9.60
2019-03-29T01:14:01.719Z,9.60
2019-03-29T01:16:04.113Z,9.60
2019-03-29T01:18:06.425Z,9.60
2019-03-29T01:20:08.924Z,9.50
2019-03-29T01:22:11.309Z,9.50
2019-03-29T01:24:13.681Z,9.50
2019-03-29T01:26:16.078Z,9.60
2019-03-29T01:28:18.397Z,9.60
2019-03-29T01:30:20.899Z,9.60
2019-03-29T01:32:23.189Z,9.50
2019-03-29T01:34:25.513Z,9.60
2019-03-29T01:36:28.078Z,9.50
2019-03-29T01:38:30.669Z,9.50
2019-03-29T01:40:33.117Z,9.50
2019-03-29T01:42:35.483Z,9.50
2019-03-29T01:44:37.750Z,9.50
2019-03-29T01:46:39.993Z,9.40
2019-03-29T01:48:42.244Z,9.50
2019-03-29T01:50:44.518Z,9.50
2019-03-29T01:52:46.767Z,9.50
2019-03-29T01:54:49.013Z,9.50
2019-03-29T01:56:51.278Z,9.50
2019-03-29T01:58:53.525Z,9.50
2019-03-29T02:00:55.905Z,9.60
2019-03-29T02:02:58.300Z,9.50
2019-03-29T02:05:01.205Z,9.50
2019-03-29T02:07:04.091Z,9.50
2019-03-29T02:09:06.540Z,9.50
2019-03-29T02:11:08.809Z,9.50
2019-03-29T02:13:11.121Z,9.60
2019-03-29T02:15:13.610Z,9.50
2019-03-29T02:17:15.875Z,9.60
2019-03-29T02:19:18.627Z,9.50
2019-03-29T02:21:22.765Z,9.50
2019-03-29T02:23:25.132Z,9.50
2019-03-29T02:25:27.705Z,9.50
2019-03-29T02:27:29.961Z,9.40
2019-03-29T02:29:32.215Z,9.50
2019-03-29T02:31:34.519Z,9.50
2019-03-29T02:33:36.773Z,9.40
2019-03-29T02:35:39.164Z,9.40
2019-03-29T02:37:41.592Z,9.40
2019-03-29T02:39:43.909Z,9.50
2019-03-29T02:41:46.852Z,9.50
2019-03-29T02:43:49.421Z,9.50
2019-03-29T02:45:51.670Z,9.50
2019-03-29T02:47:53.902Z,9.50
2019-03-29T02:49:56.185Z,9.40
2019-03-29T02:51:58.430Z,9.50
2019-03-29T02:54:00.689Z,9.50
2019-03-29T02:56:03.154Z,9.50
2019-03-29T02:58:05.518Z,9.50
2019-03-29T03:00:09.010Z,9.50
2019-03-29T03:02:11.512Z,9.50
2019-03-29T03:04:13.763Z,9.50
2019-03-29T03:06:21.452Z,9.50
2019-03-29T03:08:23.910Z,9.50
2019-03-29T03:10:26.178Z,9.50
2019-03-29T03:12:28.422Z,9.60
2019-03-29T03:14:30.786Z,9.60
2019-03-29T03:16:33.221Z,9.60
2019-03-29T03:18:35.465Z,9.60
2019-03-29T03:20:37.806Z,9.60
2019-03-29T03:22:40.107Z,9.60
2019-03-29T03:24:42.354Z,9.60
2019-03-29T03:26:44.899Z,9.60
2019-03-29T03:28:47.159Z,9.60
2019-03-29T03:30:49.427Z,9.60
2019-03-29T03:32:51.866Z,9.70
2019-03-29T03:34:54.231Z,9.70
2019-03-29T03:36:56.498Z,9.70
2019-03-29T03:38:58.774Z,9.60
2019-03-29T03:41:01.226Z,9.70
2019-03-29T03:43:03.580Z,9.60
2019-03-29T03:45:06.487Z,9.60
2019-03-29T03:47:08.725Z,9.60
2019-03-29T03:49:10.979Z,9.60
2019-03-29T03:51:13.778Z,9.70
2019-03-29T03:53:16.238Z,9.70
2019-03-29T03:55:18.638Z,9.70
2019-03-29T03:57:21.522Z,9.70
2019-03-29T03:59:25.015Z,9.70
2019-03-29T04:01:27.347Z,9.70
2019-03-29T04:03:29.711Z,9.60
2019-03-29T04:05:31.961Z,9.60
2019-03-29T04:07:34.315Z,9.60
2019-03-29T04:09:49.191Z,9.60
2019-03-29T04:11:40.838Z,9.70
2019-03-29T04:13:43.102Z,9.70
2019-03-29T04:15:45.385Z,9.70
2019-03-29T04:17:48.503Z,9.70
2019-03-29T04:19:50.738Z,9.70
2019-03-29T04:21:53.018Z,9.70
2019-03-29T04:23:55.271Z,9.60
2019-03-29T04:25:57.526Z,9.60
2019-03-29T04:27:59.798Z,9.60
2019-03-29T04:30:02.307Z,9.60
2019-03-29T04:32:04.556Z,9.60
2019-03-29T04:34:06.861Z,9.70
2019-03-29T04:36:09.530Z,9.70
2019-03-29T04:38:11.973Z,9.70
2019-03-29T04:40:14.325Z,9.70
2019-03-29T04:42:16.611Z,9.70
2019-03-29T04:44:18.869Z,9.60
2019-03-29T04:46:21.133Z,9.70
2019-03-29T04:48:23.675Z,9.60
2019-03-29T04:50:26.442Z,9.70
2019-03-29T04:52:28.918Z,9.70
2019-03-29T04:54:31.185Z,9.60
2019-03-29T04:56:33.489Z,9.70
2019-03-29T04:58:35.869Z,9.70
2019-03-29T05:00:38.196Z,9.70
2019-03-29T05:02:40.495Z,9.70
2019-03-29T05:04:42.890Z,9.70
2019-03-29T05:06:45.252Z,9.80
2019-03-29T05:08:47.513Z,9.70
2019-03-29T05:10:49.781Z,9.70
2019-03-29T05:12:52.025Z,9.80
2019-03-29T05:14:54.569Z,9.80
2019-03-29T05:16:56.949Z,9.80
2019-03-29T05:19:00.057Z,9.80
2019-03-29T05:21:02.537Z,9.80
2019-03-29T05:23:04.921Z,9.80
2019-03-29T05:25:17.885Z,9.80
2019-03-29T05:27:20.178Z,9.80
2019-03-29T05:29:22.513Z,9.80
2019-03-29T05:31:24.761Z,9.80
2019-03-29T05:33:27.049Z,9.80
2019-03-29T05:35:29.321Z,9.80
2019-03-29T05:37:31.629Z,9.80
2019-03-29T05:39:34.059Z,9.80
2019-03-29T05:41:36.400Z,9.90
2019-03-29T05:43:38.653Z,9.90
2019-03-29T05:45:41.053Z,9.90
2019-03-29T05:47:43.333Z,9.90
2019-03-29T05:49:45.722Z,9.90
2019-03-29T05:51:48.022Z,10.00
2019-03-29T05:53:50.293Z,10.00
2019-03-29T05:55:52.560Z,10.10
2019-03-29T05:57:54.821Z,10.10
2019-03-29T05:59:57.169Z,10.10
2019-03-29T06:01:59.541Z,10.10
2019-03-29T06:04:01.812Z,10.10
2019-03-29T06:06:04.080Z,10.10
2019-03-29T06:08:06.459Z,10.10
2019-03-29T06:10:09.421Z,10.10
2019-03-29T06:12:11.685Z,10.10
2019-03-29T06:14:13.989Z,10.10
2019-03-29T06:16:16.257Z,10.10
2019-03-29T06:18:18.512Z,10.20
2019-03-29T06:20:20.897Z,10.20
2019-03-29T06:22:23.157Z,10.20
2019-03-29T06:24:25.405Z,10.20
2019-03-29T06:26:27.677Z,10.20
2019-03-29T06:28:30.189Z,10.20
2019-03-29T06:30:32.849Z,10.20
2019-03-29T06:32:35.143Z,10.20
2019-03-29T06:34:37.609Z,10.30
2019-03-29T06:36:40.870Z,10.30
2019-03-29T06:38:45.849Z,10.30
2019-03-29T06:41:01.697Z,10.30
2019-03-29T06:42:52.285Z,10.30
2019-03-29T06:44:54.693Z,10.40
2019-03-29T06:46:56.948Z,10.40
2019-03-29T06:49:48.616Z,10.40
2019-03-29T06:51:50.893Z,10.50
2019-03-29T06:53:53.169Z,10.50
2019-03-29T06:55:59.117Z,10.50
2019-03-29T06:57:59.992Z,10.60
2019-03-29T07:00:02.634Z,10.70
2019-03-29T07:02:04.916Z,10.70
2019-03-29T07:04:07.300Z,10.70
2019-03-29T07:06:09.623Z,10.70
2019-03-29T07:08:11.941Z,10.80
2019-03-29T07:10:14.824Z,10.80
2019-03-29T07:12:17.181Z,11.00
2019-03-29T07:14:19.712Z,11.00
2019-03-29T07:16:22.289Z,11.10
2019-03-29T07:18:24.843Z,11.30
2019-03-29T07:20:27.146Z,11.40
2019-03-29T07:22:29.766Z,11.40
2019-03-29T07:24:32.210Z,11.50
2019-03-29T07:26:34.669Z,11.50
2019-03-29T07:28:37.039Z,11.50
2019-03-29T07:30:39.378Z,11.50
2019-03-29T07:32:41.814Z,11.60
2019-03-29T07:34:44.163Z,11.70
2019-03-29T07:36:46.558Z,11.80
2019-03-29T07:38:49.232Z,11.80
2019-03-29T07:40:51.886Z,11.90
2019-03-29T07:42:54.337Z,11.90
2019-03-29T07:44:56.755Z,11.90
2019-03-29T07:46:59.089Z,11.90
2019-03-29T07:49:01.538Z,12.00
2019-03-29T07:51:04.074Z,12.00
2019-03-29T07:53:08.949Z,12.10
2019-03-29T07:55:11.347Z,12.10
2019-03-29T07:57:13.798Z,12.20
2019-03-29T07:59:16.279Z,12.20
2019-03-29T08:01:18.771Z,12.20
2019-03-29T08:03:21.662Z,12.40
2019-03-29T08:05:25.638Z,12.40
2019-03-29T08:07:31.286Z,12.30
2019-03-29T08:09:32.388Z,12.20
2019-03-29T08:11:45.598Z,12.20
2019-03-29T08:13:39.098Z,12.30
2019-03-29T08:15:41.345Z,12.40
2019-03-29T08:17:43.671Z,12.40
2019-03-29T08:19:46.078Z,12.40
2019-03-29T08:21:48.521Z,12.40
2019-03-29T08:23:50.922Z,12.50
2019-03-29T08:25:53.457Z,12.40
2019-03-29T08:27:56.014Z,12.30
2019-03-29T08:29:58.536Z,12.40
2019-03-29T08:32:00.989Z,12.50
2019-03-29T08:34:03.417Z,12.50
2019-03-29T08:36:06.038Z,12.70
2019-03-29T08:38:08.495Z,12.90
2019-03-29T08:40:10.967Z,13.10
2019-03-29T08:42:13.417Z,13.10
2019-03-29T08:44:16.067Z,13.10
2019-03-29T08:46:18.470Z,13.20
2019-03-29T08:48:21.096Z,13.10
2019-03-29T08:50:23.638Z,12.90
2019-03-29T08:52:26.066Z,12.90
2019-03-29T08:54:28.496Z,13.00
2019-03-29T08:56:30.837Z,13.10
2019-03-29T08:58:33.160Z,13.10
2019-03-29T09:00:35.898Z,12.80
2019-03-29T09:02:38.497Z,12.70
2019-03-29T09:04:41.087Z,12.80
2019-03-29T09:06:53.253Z,12.90
2019-03-29T09:08:48.627Z,13.00
2019-03-29T09:10:52.785Z,13.30
2019-03-29T09:12:55.168Z,13.20
2019-03-29T09:14:57.639Z,13.20
2019-03-29T09:17:00.031Z,13.10
2019-03-29T09:19:02.632Z,13.20
2019-03-29T09:21:05.039Z,13.30
2019-03-29T09:23:10.300Z,13.20
2019-03-29T09:25:11.755Z,13.20
2019-03-29T09:27:14.191Z,13.20
2019-03-29T09:29:16.778Z,13.20
2019-03-29T09:31:19.104Z,13.10
2019-03-29T09:33:21.715Z,13.10
2019-03-29T09:35:24.161Z,13.10
2019-03-29T09:37:26.566Z,13.40
2019-03-29T09:39:28.863Z,13.40
2019-03-29T09:41:31.286Z,13.40
2019-03-29T09:43:33.704Z,13.20
2019-03-29T09:45:36.086Z,13.20
2019-03-29T09:47:40.513Z,13.40
2019-03-29T09:49:42.845Z,13.60
2019-03-29T09:51:45.451Z,13.50
2019-03-29T09:53:47.735Z,13.60
2019-03-29T09:59:00.799Z,13.70
2019-03-29T10:01:03.402Z,13.90
2019-03-29T10:03:05.703Z,14.20
2019-03-29T10:05:08.166Z,14.60
2019-03-29T10:07:10.707Z,14.70
2019-03-29T10:09:13.164Z,14.60
2019-03-29T10:11:15.602Z,14.80
2019-03-29T10:13:18.281Z,14.80
2019-03-29T10:15:20.638Z,14.40
2019-03-29T10:17:23.297Z,14.60
2019-03-29T10:19:25.957Z,15.00
2019-03-29T10:21:28.402Z,15.30
2019-03-29T10:23:30.838Z,15.10
2019-03-29T10:25:33.279Z,14.80
2019-03-29T10:27:35.755Z,14.70
2019-03-29T10:29:38.239Z,14.40
2019-03-29T10:31:40.891Z,14.60
2019-03-29T10:33:43.294Z,15.00
2019-03-29T10:35:51.949Z,15.40
2019-03-29T10:37:49.979Z,15.20
2019-03-29T10:39:52.307Z,15.00
2019-03-29T10:41:54.634Z,15.10
2019-03-29T10:43:57.310Z,15.20
2019-03-29T10:45:59.851Z,15.70
2019-03-29T10:48:02.361Z,16.10
2019-03-29T10:50:05.259Z,16.10
2019-03-29T10:52:07.701Z,16.10
2019-03-29T10:54:14.246Z,16.20
2019-03-29T10:56:16.857Z,16.20
2019-03-29T10:58:19.175Z,16.40
2019-03-29T11:00:32.754Z,16.50
2019-03-29T11:02:35.276Z,16.50
2019-03-29T11:04:38.177Z,17.00
2019-03-29T11:06:40.526Z,17.10
2019-03-29T11:08:44.389Z,16.90
2019-03-29T11:10:46.751Z,17.00
2019-03-29T11:12:49.145Z,17.40
2019-03-29T11:14:51.585Z,18.10
2019-03-29T11:16:54.015Z,18.10
2019-03-29T11:18:56.346Z,17.40
2019-03-29T11:20:58.747Z,17.40
2019-03-29T11:23:01.198Z,17.90
2019-03-29T11:25:03.870Z,18.00
2019-03-29T11:27:06.287Z,18.20
2019-03-29T11:29:08.913Z,18.10
2019-03-29T11:31:11.378Z,17.60
2019-03-29T11:33:13.827Z,17.40
2019-03-29T11:35:16.451Z,17.40
2019-03-29T11:37:18.824Z,17.70
2019-03-29T11:39:21.125Z,18.00
2019-03-29T11:41:32.289Z,18.10
2019-03-29T11:43:34.581Z,17.70
2019-03-29T11:45:37.017Z,17.70
2019-03-29T11:47:39.504Z,17.60
2019-03-29T11:49:41.764Z,17.50
2019-03-29T11:51:44.175Z,17.80
2019-03-29T11:53:46.994Z,18.20
2019-03-29T11:55:49.554Z,18.50
2019-03-29T11:57:51.899Z,19.10
2019-03-29T11:59:54.324Z,18.60
2019-03-29T12:01:58.669Z,18.20
2019-03-29T12:04:01.003Z,18.50
2019-03-29T12:06:03.582Z,19.30
2019-03-29T12:08:07.619Z,19.70
2019-03-29T12:10:11.507Z,20.10
2019-03-29T12:12:37.446Z,20.50
2019-03-29T12:14:59.351Z,21.20
2019-03-29T12:17:02.038Z,21.60
2019-03-29T12:19:04.391Z,20.80
2019-03-29T12:21:06.878Z,20.20
2019-03-29T12:23:09.354Z,20.10
2019-03-29T12:25:11.922Z,20.20
2019-03-29T12:27:14.245Z,20.50
2019-03-29T12:29:16.572Z,21.00
2019-03-29T12:31:18.939Z,21.30
2019-03-29T12:33:21.223Z,22.20
2019-03-29T12:35:23.708Z,22.50
2019-03-29T12:37:26.047Z,21.60
2019-03-29T12:39:28.437Z,21.00
2019-03-29T12:41:30.728Z,20.30
2019-03-29T12:43:33.121Z,20.20
2019-03-29T12:45:35.668Z,20.50
2019-03-29T12:47:37.937Z,21.30
2019-03-29T12:49:40.350Z,21.40
2019-03-29T12:55:37.294Z,21.50
2019-03-29T12:57:39.675Z,22.10
2019-03-29T12:59:42.279Z,22.80
2019-03-29T13:01:44.647Z,22.70
2019-03-29T13:03:46.920Z,22.60
2019-03-29T13:05:49.539Z,22.90
2019-03-29T13:07:53.300Z,23.10
2019-03-29T13:09:55.889Z,22.90
2019-03-29T13:11:58.542Z,23.70
2019-03-29T13:14:09.942Z,24.30
2019-03-29T13:16:05.333Z,24.80
2019-03-29T13:18:07.735Z,25.10
2019-03-29T13:20:10.295Z,25.40
2019-03-29T13:22:13.290Z,25.30
2019-03-29T13:24:16.198Z,25.30
2019-03-29T13:26:18.817Z,24.50
2019-03-29T13:28:21.231Z,24.20
2019-03-29T13:30:23.877Z,24.40
2019-03-29T13:32:26.266Z,25.00
2019-03-29T13:34:28.557Z,25.00
2019-03-29T13:36:30.998Z,25.20
2019-03-29T13:38:33.334Z,25.70
2019-03-29T13:40:35.621Z,25.90
2019-03-29T13:42:41.030Z,26.00
2019-03-29T13:44:43.310Z,26.00
2019-03-29T13:46:45.640Z,25.80
2019-03-29T13:48:48.138Z,25.60
2019-03-29T13:50:50.558Z,25.40
2019-03-29T13:52:53.047Z,24.90
2019-03-29T13:54:55.384Z,24.90
2019-03-29T13:56:57.876Z,25.20
2019-03-29T13:59:00.346Z,24.80
2019-03-29T14:01:02.807Z,24.60
2019-03-29T14:03:05.147Z,24.10
2019-03-29T14:05:07.626Z,24.40
2019-03-29T14:07:10.053Z,24.10
2019-03-29T14:09:12.732Z,24.40
2019-03-29T14:11:15.623Z,24.50
2019-03-29T14:13:19.635Z,24.40
2019-03-29T14:15:22.363Z,24.50
2019-03-29T14:17:24.847Z,24.90
2019-03-29T14:19:27.189Z,25.10
2019-03-29T14:21:29.785Z,25.30
2019-03-29T14:23:32.087Z,25.60
2019-03-29T14:25:34.549Z,25.80
2019-03-29T14:27:37.166Z,26.20
2019-03-29T14:29:39.462Z,26.20
2019-03-29T14:31:41.779Z,26.30
2019-03-29T14:33:44.133Z,26.50
2019-03-29T14:35:46.397Z,26.60
2019-03-29T14:37:48.805Z,26.50
2019-03-29T14:39:51.120Z,26.20
2019-03-29T14:41:53.514Z,26.20
2019-03-29T14:43:55.893Z,26.20
2019-03-29T14:45:58.305Z,26.50
2019-03-29T14:48:00.671Z,26.70
2019-03-29T14:50:03.755Z,26.60
2019-03-29T14:52:06.163Z,26.50
2019-03-29T14:54:08.474Z,25.60
2019-03-29T14:56:28.946Z,25.10
2019-03-29T14:58:31.278Z,24.50
2019-03-29T15:00:38.138Z,24.70
2019-03-29T15:02:40.627Z,25.10
2019-03-29T15:04:43.044Z,25.50
2019-03-29T15:06:45.401Z,25.80
2019-03-29T15:08:49.878Z,26.70
2019-03-29T15:10:52.098Z,26.50
2019-03-29T15:12:55.109Z,26.60
2019-03-29T15:15:05.944Z,26.60
2019-03-29T15:17:01.853Z,26.40
2019-03-29T15:19:04.679Z,26.20
2019-03-29T15:21:10.290Z,26.30
2019-03-29T15:23:14.850Z,26.10
2019-03-29T15:25:17.510Z,26.00
2019-03-29T15:27:20.874Z,25.50
2019-03-29T15:29:23.518Z,25.30
2019-03-29T15:31:26.112Z,25.70
2019-03-29T15:33:33.715Z,25.50
2019-03-29T15:35:38.527Z,25.30
2019-03-29T15:37:40.955Z,25.30
2019-03-29T15:39:43.338Z,25.00
2019-03-29T15:41:45.817Z,25.20
2019-03-29T15:43:48.436Z,25.10
2019-03-29T15:45:50.779Z,25.10
2019-03-29T15:47:53.167Z,24.50
2019-03-29T15:49:56.609Z,23.90
2019-03-29T15:51:59.559Z,23.40
2019-03-29T15:54:02.346Z,23.00
2019-03-29T15:56:04.748Z,22.60
2019-03-29T15:58:07.178Z,22.40
2019-03-29T16:00:10.354Z,22.30
2019-03-29T16:02:12.894Z,21.40
2019-03-29T16:04:15.116Z,20.10
2019-03-29T16:06:19.617Z,19.50
2019-03-29T16:08:21.872Z,19.30
2019-03-29T16:10:24.309Z,18.90
2019-03-29T16:12:27.059Z,18.70
2019-03-29T16:14:29.280Z,18.60
2019-03-29T16:16:31.863Z,18.60
2019-03-29T16:18:34.152Z,18.50
2019-03-29T16:20:36.564Z,18.50
2019-03-29T16:22:38.866Z,18.50
2019-03-29T16:24:41.161Z,18.40
2019-03-29T16:26:43.423Z,18.30
2019-03-29T16:28:45.676Z,18.30
2019-03-29T16:30:48.058Z,18.30
2019-03-29T16:32:50.533Z,18.30
2019-03-29T16:34:53.251Z,18.30
2019-03-29T16:36:55.786Z,18.20
2019-03-29T16:38:58.160Z,18.10
2019-03-29T16:41:00.461Z,17.80
2019-03-29T16:43:02.854Z,17.50
2019-03-29T16:45:05.704Z,17.30
2019-03-29T16:47:08.137Z,17.20
2019-03-29T16:49:10.515Z,17.20
2019-03-29T16:51:12.900Z,17.20
2019-03-29T16:53:16.099Z,17.20
2019-03-29T16:55:18.541Z,17.20
2019-03-29T16:57:20.829Z,17.10
2019-03-29T16:59:23.119Z,17.10
2019-03-29T17:01:25.644Z,17.10
2019-03-29T17:03:27.950Z,17.10
2019-03-29T17:05:30.431Z,17.10
2019-03-29T17:07:32.823Z,17.10
2019-03-29T17:09:35.093Z,17.10
2019-03-29T17:11:37.391Z,17.00
2019-03-29T17:13:39.821Z,17.00
2019-03-29T17:15:42.342Z,16.90
2019-03-29T17:17:44.645Z,16.80
2019-03-29T17:19:49.055Z,16.70
2019-03-29T17:21:51.446Z,16.60
2019-03-29T17:23:53.741Z,16.60
2019-03-29T17:25:56.093Z,16.60
2019-03-29T17:27:58.855Z,16.60
2019-03-29T17:30:01.226Z,16.50
2019-03-29T17:32:05.273Z,16.40
2019-03-29T17:34:07.578Z,16.40
2019-03-29T17:36:09.984Z,16.40
2019-03-29T17:38:12.359Z,16.30
2019-03-29T17:40:14.941Z,16.30
2019-03-29T17:42:17.192Z,16.20
2019-03-29T17:44:19.649Z,16.10
2019-03-29T17:46:21.898Z,16.10
2019-03-29T17:48:24.263Z,16.10
2019-03-29T17:50:26.518Z,16.00
2019-03-29T17:52:28.841Z,15.90
2019-03-29T17:54:31.081Z,15.80
2019-03-29T17:56:33.323Z,15.70
2019-03-29T17:58:35.745Z,15.70
2019-03-29T18:00:38.105Z,15.70
2019-03-29T18:02:40.360Z,15.60
2019-03-29T18:04:42.610Z,15.50
2019-03-29T18:06:46.987Z,15.50
2019-03-29T18:08:49.000Z,15.40
2019-03-29T18:10:51.294Z,15.40
2019-03-29T18:12:53.614Z,15.30
2019-03-29T18:14:55.905Z,15.30
2019-03-29T18:16:58.187Z,15.20
2019-03-29T18:19:00.437Z,15.20
2019-03-29T18:21:02.695Z,15.10
2019-03-29T18:23:05.054Z,15.10
2019-03-29T18:25:07.629Z,15.00
2019-03-29T18:27:09.883Z,15.00
2019-03-29T18:29:12.126Z,15.00
2019-03-29T18:31:14.578Z,14.90
2019-03-29T18:33:18.215Z,14.90
2019-03-29T18:35:20.467Z,14.90
2019-03-29T18:37:23.025Z,14.80
2019-03-29T18:39:26.212Z,14.80
2019-03-29T18:41:28.449Z,14.70
2019-03-29T18:43:30.729Z,14.70
2019-03-29T18:45:33.119Z,14.60
2019-03-29T18:47:35.437Z,14.60
2019-03-29T18:49:38.415Z,14.50
2019-03-29T18:51:40.671Z,14.40
2019-03-29T18:53:43.052Z,14.40
2019-03-29T18:55:45.315Z,14.40
2019-03-29T18:57:47.574Z,14.40
2019-03-29T18:59:49.909Z,14.30
2019-03-29T19:01:52.272Z,14.30
2019-03-29T19:03:54.661Z,14.30
2019-03-29T19:05:56.913Z,14.20
2019-03-29T19:07:59.385Z,14.20
2019-03-29T19:10:05.582Z,14.10
2019-03-29T19:12:07.933Z,14.10
2019-03-29T19:14:10.817Z,14.00
2019-03-29T19:16:15.716Z,14.00
2019-03-29T19:18:18.002Z,13.90
2019-03-29T19:20:27.351Z,13.90
2019-03-29T19:22:25.254Z,13.90
2019-03-29T19:24:27.672Z,13.90
2019-03-29T19:26:30.769Z,13.90
2019-03-29T19:28:40.698Z,13.80
2019-03-29T19:30:43.046Z,13.80
2019-03-29T19:32:45.426Z,13.70
2019-03-29T19:34:47.703Z,13.70
2019-03-29T19:36:49.949Z,13.60
2019-03-29T19:38:52.264Z,13.60
2019-03-29T19:40:55.423Z,13.60
2019-03-29T19:42:57.664Z,13.50
2019-03-29T19:45:00.033Z,13.50
2019-03-29T19:47:12.848Z,13.50
2019-03-29T19:49:06.561Z,13.40
2019-03-29T19:51:08.821Z,13.40
2019-03-29T19:53:11.075Z,13.40
2019-03-29T19:55:14.030Z,13.40
2019-03-29T19:57:16.349Z,13.40
2019-03-29T19:59:18.792Z,13.30
2019-03-29T20:01:21.205Z,13.30
2019-03-29T20:03:25.085Z,13.20
2019-03-29T20:05:27.769Z,13.20
2019-03-29T20:07:30.056Z,13.20
2019-03-29T20:09:32.504Z,13.10
2019-03-29T20:11:35.181Z,13.00
2019-03-29T20:13:37.671Z,13.00
2019-03-29T20:15:41.827Z,12.90
2019-03-29T20:17:44.074Z,12.90
2019-03-29T20:19:46.663Z,12.90
2019-03-29T20:21:49.025Z,12.90
2019-03-29T20:23:53.193Z,12.90
2019-03-29T20:25:58.897Z,12.90
2019-03-29T20:28:01.257Z,12.80
2019-03-29T20:30:04.049Z,12.80
2019-03-29T20:32:06.369Z,12.80
2019-03-29T20:34:08.613Z,12.80
2019-03-29T20:36:11.333Z,12.70
2019-03-29T20:38:13.674Z,12.70
2019-03-29T20:40:16.163Z,12.70
2019-03-29T20:42:18.573Z,12.70
2019-03-29T20:44:20.875Z,12.60
2019-03-29T20:46:23.533Z,12.60
2019-03-29T20:48:25.803Z,12.50
2019-03-29T20:50:28.157Z,12.50
2019-03-29T20:52:30.500Z,12.40
2019-03-29T20:54:32.730Z,12.40
2019-03-29T20:56:36.461Z,12.40
2019-03-29T20:58:38.681Z,12.40
2019-03-29T21:00:41.092Z,12.30
2019-03-29T21:02:43.713Z,12.30
2019-03-29T21:04:45.950Z,12.30
2019-03-29T21:06:48.206Z,12.20
2019-03-29T21:08:50.625Z,12.20
2019-03-29T21:10:56.101Z,12.20
2019-03-29T21:12:57.055Z,12.10
2019-03-29T21:14:59.417Z,12.10
2019-03-29T21:17:01.665Z,12.10
2019-03-29T21:19:04.008Z,12.00
2019-03-29T21:21:09.271Z,12.00
2019-03-29T21:23:11.857Z,12.00
2019-03-29T21:25:14.340Z,12.00
2019-03-29T21:27:20.388Z,11.90
2019-03-29T21:29:22.833Z,11.90
2019-03-29T21:31:25.324Z,12.00
2019-03-29T21:33:27.677Z,11.90
2019-03-29T21:35:31.804Z,11.80
2019-03-29T21:37:34.438Z,11.80
2019-03-29T21:39:38.769Z,11.80
2019-03-29T21:41:41.273Z,11.80
2019-03-29T21:43:43.517Z,11.70
2019-03-29T21:45:48.851Z,11.70
2019-03-29T21:48:04.113Z,11.80
2019-03-29T21:49:55.533Z,11.70
2019-03-29T21:51:58.174Z,11.80
2019-03-29T21:54:00.408Z,11.80
2019-03-29T21:56:05.122Z,11.90
2019-03-29T21:58:07.372Z,12.00
2019-03-29T22:00:11.986Z,12.00
2019-03-29T22:02:14.269Z,12.00
2019-03-29T22:04:16.526Z,12.00
2019-03-29T22:06:18.989Z,12.00
2019-03-29T22:08:21.357Z,11.90
2019-03-29T22:10:23.622Z,11.80
2019-03-29T22:12:25.877Z,11.80
2019-03-29T22:14:28.129Z,11.90
2019-03-29T22:16:30.571Z,11.80
2019-03-29T22:18:38.132Z,11.70
2019-03-29T22:20:37.088Z,11.60
2019-03-29T22:22:39.761Z,11.50
2019-03-29T22:24:42.061Z,11.40
2019-03-29T22:26:50.054Z,11.40
2019-03-29T22:28:52.480Z,11.30
2019-03-29T22:30:54.913Z,11.30
2019-03-29T22:32:59.320Z,11.30
2019-03-29T22:35:01.898Z,11.20
2019-03-29T22:37:04.245Z,11.20
2019-03-29T22:39:07.238Z,11.10
2019-03-29T22:41:09.859Z,11.10
2019-03-29T22:43:13.403Z,11.10
2019-03-29T22:45:15.907Z,11.10
2019-03-29T22:47:18.202Z,11.30
2019-03-29T22:49:20.454Z,11.40
2019-03-29T22:51:22.711Z,11.50
2019-03-29T22:53:25.075Z,11.40
2019-03-29T22:55:27.425Z,11.20
2019-03-29T22:57:29.685Z,11.10
2019-03-29T22:59:31.969Z,11.10
2019-03-29T23:01:38.634Z,11.20
2019-03-29T23:03:41.555Z,11.30
2019-03-29T23:05:43.906Z,11.30
2019-03-29T23:07:46.149Z,11.30
2019-03-29T23:09:48.532Z,11.30
2019-03-29T23:11:50.786Z,11.30
2019-03-29T23:13:53.129Z,11.30
2019-03-29T23:15:55.401Z,11.20
2019-03-29T23:17:57.761Z,11.00
2019-03-29T23:20:00.009Z,10.90
2019-03-29T23:22:02.274Z,10.80
2019-03-29T23:24:04.525Z,10.70
2019-03-29T23:26:06.753Z,10.60
2019-03-29T23:28:09.114Z,10.60
2019-03-29T23:30:12.073Z,10.50
2019-03-29T23:32:14.469Z,10.60
2019-03-29T23:34:16.729Z,10.50
2019-03-29T23:36:19.050Z,10.50
2019-03-29T23:38:21.302Z,10.50
2019-03-29T23:40:23.750Z,10.50
2019-03-29T23:42:26.004Z,10.50
2019-03-29T23:44:28.414Z,10.50
2019-03-29T23:46:30.680Z,10.50
2019-03-29T23:48:33.017Z,10.50
2019-03-29T23:50:35.269Z,10.40
2019-03-29T23:52:37.561Z,10.40
2019-03-29T23:54:39.873Z,10.40
2019-03-29T23:56:42.377Z,10.40
2019-03-29T23:58:44.652Z,10.30
